sensor_id;sensor_type;location;lat;lon;timestamp;P1;durP1;ratioP1;P2;durP2;ratioP2
75620;SDS011;64574;48.506;-2.750;2023-04-15T00:00:15;3.00;;;0.90;;
75620;SDS011;64574;48.506;-2.750;2023-04-15T00:02:41;4.70;;;1.05;;
75620;SDS011;64574;48.506;-2.750;2023-04-15T00:05:08;5.00;;;0.88;;
75620;SDS011;64574;48.506;-2.750;2023-04-15T00:07:34;7.18;;;0.90;;
75620;SDS011;64574;48.506;-2.750;2023-04-15T00:10:00;6.15;;;1.15;;
75620;SDS011;64574;48.506;-2.750;2023-04-15T00:12:26;7.38;;;1.20;;
75620;SDS011;64574;48.506;-2.750;2023-04-15T00:14:52;7.35;;;1.00;;
75620;SDS011;64574;48.506;-2.750;2023-04-15T00:17:18;2.33;;;1.23;;
75620;SDS011;64574;48.506;-2.750;2023-04-15T00:19:44;3.78;;;1.00;;
75620;SDS011;64574;48.506;-2.750;2023-04-15T00:22:10;8.00;;;1.02;;
75620;SDS011;64574;48.506;-2.750;2023-04-15T00:24:36;4.25;;;1.20;;
75620;SDS011;64574;48.506;-2.750;2023-04-15T00:27:02;6.60;;;0.98;;
75620;SDS011;64574;48.506;-2.750;2023-04-15T00:29:28;4.95;;;0.70;;
75620;SDS011;64574;48.506;-2.750;2023-04-15T00:31:54;4.18;;;0.90;;
75620;SDS011;64574;48.506;-2.750;2023-04-15T00:34:21;4.57;;;0.90;;
75620;SDS011;64574;48.506;-2.750;2023-04-15T00:36:47;4.95;;;0.70;;
75620;SDS011;64574;48.506;-2.750;2023-04-15T00:39:13;5.63;;;0.85;;
75620;SDS011;64574;48.506;-2.750;2023-04-15T00:41:40;5.93;;;0.90;;
75620;SDS011;64574;48.506;-2.750;2023-04-15T00:44:06;6.28;;;1.35;;
75620;SDS011;64574;48.506;-2.750;2023-04-15T00:46:34;6.07;;;1.00;;
75620;SDS011;64574;48.506;-2.750;2023-04-15T00:49:02;8.57;;;1.42;;
75620;SDS011;64574;48.506;-2.750;2023-04-15T00:53:57;3.47;;;0.75;;
75620;SDS011;64574;48.506;-2.750;2023-04-15T00:56:24;4.00;;;0.73;;
75620;SDS011;64574;48.506;-2.750;2023-04-15T01:01:20;5.05;;;0.90;;
75620;SDS011;64574;48.506;-2.750;2023-04-15T01:03:49;6.93;;;1.52;;
75620;SDS011;64574;48.506;-2.750;2023-04-15T01:06:16;5.25;;;1.05;;
75620;SDS011;64574;48.506;-2.750;2023-04-15T01:08:42;6.30;;;0.90;;
75620;SDS011;64574;48.506;-2.750;2023-04-15T01:11:09;4.50;;;0.80;;
75620;SDS011;64574;48.506;-2.750;2023-04-15T01:13:37;4.75;;;0.93;;
75620;SDS011;64574;48.506;-2.750;2023-04-15T01:16:02;5.03;;;0.80;;
75620;SDS011;64574;48.506;-2.750;2023-04-15T01:18:29;6.95;;;1.75;;
75620;SDS011;64574;48.506;-2.750;2023-04-15T01:20:55;7.72;;;1.08;;
75620;SDS011;64574;48.506;-2.750;2023-04-15T01:23:21;6.57;;;1.33;;
75620;SDS011;64574;48.506;-2.750;2023-04-15T01:25:48;3.35;;;0.85;;
75620;SDS011;64574;48.506;-2.750;2023-04-15T01:28:14;1.92;;;0.80;;
75620;SDS011;64574;48.506;-2.750;2023-04-15T01:30:40;11.50;;;1.02;;
75620;SDS011;64574;48.506;-2.750;2023-04-15T01:33:06;4.53;;;0.90;;
75620;SDS011;64574;48.506;-2.750;2023-04-15T01:35:32;4.45;;;0.90;;
75620;SDS011;64574;48.506;-2.750;2023-04-15T01:38:06;9.10;;;1.17;;
75620;SDS011;64574;48.506;-2.750;2023-04-15T01:40:33;3.60;;;0.95;;
75620;SDS011;64574;48.506;-2.750;2023-04-15T01:43:00;3.95;;;1.02;;
75620;SDS011;64574;48.506;-2.750;2023-04-15T01:45:26;6.47;;;1.35;;
75620;SDS011;64574;48.506;-2.750;2023-04-15T01:47:52;6.97;;;1.10;;
75620;SDS011;64574;48.506;-2.750;2023-04-15T01:50:18;7.68;;;1.20;;
75620;SDS011;64574;48.506;-2.750;2023-04-15T01:52:44;4.97;;;1.05;;
75620;SDS011;64574;48.506;-2.750;2023-04-15T01:55:11;6.97;;;1.00;;
75620;SDS011;64574;48.506;-2.750;2023-04-15T01:57:37;6.78;;;1.20;;
75620;SDS011;64574;48.506;-2.750;2023-04-15T02:00:03;6.75;;;1.08;;
75620;SDS011;64574;48.506;-2.750;2023-04-15T02:02:29;5.45;;;1.00;;
75620;SDS011;64574;48.506;-2.750;2023-04-15T02:04:55;4.82;;;1.20;;
75620;SDS011;64574;48.506;-2.750;2023-04-15T02:07:20;7.75;;;2.03;;
75620;SDS011;64574;48.506;-2.750;2023-04-15T02:09:46;7.03;;;1.80;;
75620;SDS011;64574;48.506;-2.750;2023-04-15T02:12:11;8.18;;;1.70;;
75620;SDS011;64574;48.506;-2.750;2023-04-15T02:14:37;9.38;;;1.30;;
75620;SDS011;64574;48.506;-2.750;2023-04-15T02:17:03;5.45;;;1.10;;
75620;SDS011;64574;48.506;-2.750;2023-04-15T02:19:32;4.68;;;1.50;;
75620;SDS011;64574;48.506;-2.750;2023-04-15T02:21:59;6.50;;;1.20;;
75620;SDS011;64574;48.506;-2.750;2023-04-15T02:24:26;6.40;;;1.20;;
75620;SDS011;64574;48.506;-2.750;2023-04-15T02:26:52;6.82;;;0.93;;
75620;SDS011;64574;48.506;-2.750;2023-04-15T02:29:18;3.08;;;0.70;;
75620;SDS011;64574;48.506;-2.750;2023-04-15T02:31:44;7.55;;;1.50;;
75620;SDS011;64574;48.506;-2.750;2023-04-15T02:34:09;4.78;;;1.20;;
75620;SDS011;64574;48.506;-2.750;2023-04-15T02:36:35;5.68;;;1.30;;
75620;SDS011;64574;48.506;-2.750;2023-04-15T02:39:01;5.88;;;1.00;;
75620;SDS011;64574;48.506;-2.750;2023-04-15T02:41:28;5.90;;;1.17;;
75620;SDS011;64574;48.506;-2.750;2023-04-15T02:43:54;12.30;;;1.48;;
75620;SDS011;64574;48.506;-2.750;2023-04-15T02:46:20;5.20;;;1.10;;
75620;SDS011;64574;48.506;-2.750;2023-04-15T02:48:46;6.32;;;1.23;;
75620;SDS011;64574;48.506;-2.750;2023-04-15T02:51:16;6.30;;;0.93;;
75620;SDS011;64574;48.506;-2.750;2023-04-15T02:53:44;4.80;;;1.08;;
75620;SDS011;64574;48.506;-2.750;2023-04-15T02:56:10;8.95;;;1.25;;
75620;SDS011;64574;48.506;-2.750;2023-04-15T02:58:36;3.53;;;1.10;;
75620;SDS011;64574;48.506;-2.750;2023-04-15T03:01:03;6.03;;;1.27;;
75620;SDS011;64574;48.506;-2.750;2023-04-15T03:03:28;5.70;;;1.25;;
75620;SDS011;64574;48.506;-2.750;2023-04-15T03:05:54;6.90;;;1.17;;
75620;SDS011;64574;48.506;-2.750;2023-04-15T03:08:20;6.80;;;1.33;;
75620;SDS011;64574;48.506;-2.750;2023-04-15T03:10:45;7.10;;;0.90;;
75620;SDS011;64574;48.506;-2.750;2023-04-15T03:13:11;7.35;;;1.10;;
75620;SDS011;64574;48.506;-2.750;2023-04-15T03:15:37;6.43;;;1.13;;
75620;SDS011;64574;48.506;-2.750;2023-04-15T03:18:03;6.15;;;1.20;;
75620;SDS011;64574;48.506;-2.750;2023-04-15T03:20:28;11.85;;;1.30;;
75620;SDS011;64574;48.506;-2.750;2023-04-15T03:22:54;6.43;;;1.20;;
75620;SDS011;64574;48.506;-2.750;2023-04-15T03:25:20;5.75;;;0.93;;
75620;SDS011;64574;48.506;-2.750;2023-04-15T03:27:45;9.52;;;1.50;;
75620;SDS011;64574;48.506;-2.750;2023-04-15T03:30:11;6.03;;;1.02;;
75620;SDS011;64574;48.506;-2.750;2023-04-15T03:32:37;8.05;;;1.00;;
75620;SDS011;64574;48.506;-2.750;2023-04-15T03:35:03;5.65;;;1.00;;
75620;SDS011;64574;48.506;-2.750;2023-04-15T03:37:29;7.55;;;1.08;;
75620;SDS011;64574;48.506;-2.750;2023-04-15T03:39:55;7.20;;;1.00;;
75620;SDS011;64574;48.506;-2.750;2023-04-15T03:42:21;8.82;;;1.10;;
75620;SDS011;64574;48.506;-2.750;2023-04-15T03:44:46;6.10;;;1.30;;
75620;SDS011;64574;48.506;-2.750;2023-04-15T03:47:12;9.15;;;1.40;;
75620;SDS011;64574;48.506;-2.750;2023-04-15T03:49:37;6.53;;;1.10;;
75620;SDS011;64574;48.506;-2.750;2023-04-15T03:52:03;8.10;;;1.17;;
75620;SDS011;64574;48.506;-2.750;2023-04-15T03:54:29;9.77;;;1.25;;
75620;SDS011;64574;48.506;-2.750;2023-04-15T03:56:55;8.63;;;1.00;;
75620;SDS011;64574;48.506;-2.750;2023-04-15T03:59:21;6.20;;;1.00;;
75620;SDS011;64574;48.506;-2.750;2023-04-15T04:01:47;13.50;;;2.50;;
75620;SDS011;64574;48.506;-2.750;2023-04-15T04:04:13;5.72;;;1.27;;
75620;SDS011;64574;48.506;-2.750;2023-04-15T04:06:39;3.63;;;0.80;;
75620;SDS011;64574;48.506;-2.750;2023-04-15T04:09:04;11.05;;;1.73;;
75620;SDS011;64574;48.506;-2.750;2023-04-15T04:11:30;6.15;;;1.27;;
75620;SDS011;64574;48.506;-2.750;2023-04-15T04:13:56;12.27;;;1.35;;
75620;SDS011;64574;48.506;-2.750;2023-04-15T04:16:22;9.95;;;1.17;;
75620;SDS011;64574;48.506;-2.750;2023-04-15T04:18:48;12.25;;;2.00;;
75620;SDS011;64574;48.506;-2.750;2023-04-15T04:21:13;7.43;;;1.55;;
75620;SDS011;64574;48.506;-2.750;2023-04-15T04:23:39;5.25;;;1.63;;
75620;SDS011;64574;48.506;-2.750;2023-04-15T04:26:05;3.95;;;1.20;;
75620;SDS011;64574;48.506;-2.750;2023-04-15T04:28:31;8.10;;;1.30;;
75620;SDS011;64574;48.506;-2.750;2023-04-15T04:30:56;8.25;;;1.30;;
75620;SDS011;64574;48.506;-2.750;2023-04-15T04:33:22;10.45;;;1.35;;
75620;SDS011;64574;48.506;-2.750;2023-04-15T04:35:48;9.07;;;1.17;;
75620;SDS011;64574;48.506;-2.750;2023-04-15T04:38:14;11.38;;;1.77;;
75620;SDS011;64574;48.506;-2.750;2023-04-15T04:40:39;7.28;;;1.00;;
75620;SDS011;64574;48.506;-2.750;2023-04-15T04:43:05;7.70;;;1.00;;
75620;SDS011;64574;48.506;-2.750;2023-04-15T04:45:31;8.73;;;1.23;;
75620;SDS011;64574;48.506;-2.750;2023-04-15T04:47:56;6.75;;;1.30;;
75620;SDS011;64574;48.506;-2.750;2023-04-15T04:50:22;12.10;;;1.20;;
75620;SDS011;64574;48.506;-2.750;2023-04-15T04:52:47;13.70;;;1.88;;
75620;SDS011;64574;48.506;-2.750;2023-04-15T04:55:13;6.80;;;1.23;;
75620;SDS011;64574;48.506;-2.750;2023-04-15T04:57:39;12.00;;;1.27;;
75620;SDS011;64574;48.506;-2.750;2023-04-15T05:00:06;7.55;;;1.02;;
75620;SDS011;64574;48.506;-2.750;2023-04-15T05:02:33;11.40;;;1.38;;
75620;SDS011;64574;48.506;-2.750;2023-04-15T05:04:58;8.07;;;1.52;;
75620;SDS011;64574;48.506;-2.750;2023-04-15T05:07:24;11.52;;;1.60;;
75620;SDS011;64574;48.506;-2.750;2023-04-15T05:09:50;6.97;;;1.25;;
75620;SDS011;64574;48.506;-2.750;2023-04-15T05:12:16;7.53;;;1.10;;
75620;SDS011;64574;48.506;-2.750;2023-04-15T05:14:42;10.25;;;1.30;;
75620;SDS011;64574;48.506;-2.750;2023-04-15T05:17:08;10.05;;;1.20;;
75620;SDS011;64574;48.506;-2.750;2023-04-15T05:19:35;6.60;;;1.17;;
75620;SDS011;64574;48.506;-2.750;2023-04-15T05:22:00;11.40;;;1.80;;
75620;SDS011;64574;48.506;-2.750;2023-04-15T05:24:26;7.72;;;1.50;;
75620;SDS011;64574;48.506;-2.750;2023-04-15T05:26:52;12.50;;;1.23;;
75620;SDS011;64574;48.506;-2.750;2023-04-15T05:29:17;6.20;;;1.08;;
75620;SDS011;64574;48.506;-2.750;2023-04-15T05:31:43;6.50;;;1.08;;
75620;SDS011;64574;48.506;-2.750;2023-04-15T05:34:09;6.72;;;1.23;;
75620;SDS011;64574;48.506;-2.750;2023-04-15T05:36:36;11.30;;;1.30;;
75620;SDS011;64574;48.506;-2.750;2023-04-15T05:39:02;9.68;;;1.75;;
75620;SDS011;64574;48.506;-2.750;2023-04-15T05:41:28;8.23;;;1.35;;
75620;SDS011;64574;48.506;-2.750;2023-04-15T05:43:54;9.32;;;1.63;;
75620;SDS011;64574;48.506;-2.750;2023-04-15T05:46:20;8.65;;;1.75;;
75620;SDS011;64574;48.506;-2.750;2023-04-15T05:48:46;9.75;;;2.00;;
75620;SDS011;64574;48.506;-2.750;2023-04-15T05:51:12;11.93;;;1.60;;
75620;SDS011;64574;48.506;-2.750;2023-04-15T05:53:38;5.32;;;1.40;;
75620;SDS011;64574;48.506;-2.750;2023-04-15T05:56:05;8.27;;;1.00;;
75620;SDS011;64574;48.506;-2.750;2023-04-15T05:58:31;9.70;;;1.50;;
75620;SDS011;64574;48.506;-2.750;2023-04-15T06:00:57;10.38;;;2.13;;
75620;SDS011;64574;48.506;-2.750;2023-04-15T06:03:22;10.55;;;1.58;;
75620;SDS011;64574;48.506;-2.750;2023-04-15T06:05:48;10.43;;;1.35;;
75620;SDS011;64574;48.506;-2.750;2023-04-15T06:08:14;6.43;;;1.50;;
75620;SDS011;64574;48.506;-2.750;2023-04-15T06:10:40;6.00;;;1.63;;
75620;SDS011;64574;48.506;-2.750;2023-04-15T06:13:06;8.35;;;1.35;;
75620;SDS011;64574;48.506;-2.750;2023-04-15T06:15:32;10.75;;;1.33;;
75620;SDS011;64574;48.506;-2.750;2023-04-15T06:17:57;13.38;;;1.50;;
75620;SDS011;64574;48.506;-2.750;2023-04-15T06:20:23;10.98;;;1.65;;
75620;SDS011;64574;48.506;-2.750;2023-04-15T06:22:49;8.48;;;1.45;;
75620;SDS011;64574;48.506;-2.750;2023-04-15T06:25:15;9.55;;;1.65;;
75620;SDS011;64574;48.506;-2.750;2023-04-15T06:27:41;9.38;;;1.80;;
75620;SDS011;64574;48.506;-2.750;2023-04-15T06:30:06;8.10;;;1.40;;
75620;SDS011;64574;48.506;-2.750;2023-04-15T06:32:32;8.85;;;1.85;;
75620;SDS011;64574;48.506;-2.750;2023-04-15T06:34:58;10.75;;;1.60;;
75620;SDS011;64574;48.506;-2.750;2023-04-15T06:37:24;11.10;;;1.77;;
75620;SDS011;64574;48.506;-2.750;2023-04-15T06:39:49;9.93;;;1.30;;
75620;SDS011;64574;48.506;-2.750;2023-04-15T06:42:15;11.50;;;1.67;;
75620;SDS011;64574;48.506;-2.750;2023-04-15T06:44:41;10.48;;;1.10;;
75620;SDS011;64574;48.506;-2.750;2023-04-15T06:47:07;9.27;;;1.40;;
75620;SDS011;64574;48.506;-2.750;2023-04-15T06:49:33;7.68;;;1.67;;
75620;SDS011;64574;48.506;-2.750;2023-04-15T06:51:59;12.82;;;1.70;;
75620;SDS011;64574;48.506;-2.750;2023-04-15T06:54:25;10.10;;;1.50;;
75620;SDS011;64574;48.506;-2.750;2023-04-15T06:56:51;12.18;;;1.38;;
75620;SDS011;64574;48.506;-2.750;2023-04-15T06:59:17;6.72;;;1.10;;
75620;SDS011;64574;48.506;-2.750;2023-04-15T07:01:43;9.90;;;1.52;;
75620;SDS011;64574;48.506;-2.750;2023-04-15T07:04:09;8.88;;;1.30;;
75620;SDS011;64574;48.506;-2.750;2023-04-15T07:06:35;12.40;;;1.30;;
75620;SDS011;64574;48.506;-2.750;2023-04-15T07:09:01;11.43;;;1.60;;
75620;SDS011;64574;48.506;-2.750;2023-04-15T07:13:53;9.05;;;1.20;;
75620;SDS011;64574;48.506;-2.750;2023-04-15T07:16:19;12.18;;;1.52;;
75620;SDS011;64574;48.506;-2.750;2023-04-15T07:18:45;9.05;;;0.93;;
75620;SDS011;64574;48.506;-2.750;2023-04-15T07:21:10;8.02;;;1.77;;
75620;SDS011;64574;48.506;-2.750;2023-04-15T07:23:36;10.50;;;1.50;;
75620;SDS011;64574;48.506;-2.750;2023-04-15T07:26:02;10.32;;;1.85;;
75620;SDS011;64574;48.506;-2.750;2023-04-15T07:28:28;7.53;;;1.40;;
75620;SDS011;64574;48.506;-2.750;2023-04-15T07:30:54;7.80;;;1.20;;
75620;SDS011;64574;48.506;-2.750;2023-04-15T07:35:48;15.38;;;1.48;;
75620;SDS011;64574;48.506;-2.750;2023-04-15T07:38:14;4.68;;;1.15;;
75620;SDS011;64574;48.506;-2.750;2023-04-15T07:40:40;6.07;;;0.98;;
75620;SDS011;64574;48.506;-2.750;2023-04-15T07:43:06;10.63;;;1.70;;
75620;SDS011;64574;48.506;-2.750;2023-04-15T07:45:32;7.60;;;1.50;;
75620;SDS011;64574;48.506;-2.750;2023-04-15T07:47:59;5.00;;;1.10;;
75620;SDS011;64574;48.506;-2.750;2023-04-15T07:50:25;6.45;;;1.00;;
75620;SDS011;64574;48.506;-2.750;2023-04-15T07:52:51;9.35;;;1.15;;
75620;SDS011;64574;48.506;-2.750;2023-04-15T07:55:17;5.43;;;0.90;;
75620;SDS011;64574;48.506;-2.750;2023-04-15T07:57:45;7.65;;;1.20;;
75620;SDS011;64574;48.506;-2.750;2023-04-15T08:00:11;10.55;;;1.80;;
75620;SDS011;64574;48.506;-2.750;2023-04-15T08:02:37;9.30;;;1.50;;
75620;SDS011;64574;48.506;-2.750;2023-04-15T08:05:03;8.40;;;1.10;;
75620;SDS011;64574;48.506;-2.750;2023-04-15T08:07:29;4.07;;;0.93;;
75620;SDS011;64574;48.506;-2.750;2023-04-15T08:09:55;7.18;;;1.10;;
75620;SDS011;64574;48.506;-2.750;2023-04-15T08:12:22;6.03;;;1.05;;
75620;SDS011;64574;48.506;-2.750;2023-04-15T08:14:48;6.13;;;0.88;;
75620;SDS011;64574;48.506;-2.750;2023-04-15T08:17:17;6.78;;;1.00;;
75620;SDS011;64574;48.506;-2.750;2023-04-15T08:19:42;6.97;;;0.90;;
75620;SDS011;64574;48.506;-2.750;2023-04-15T08:22:09;5.40;;;0.98;;
75620;SDS011;64574;48.506;-2.750;2023-04-15T08:24:35;3.65;;;0.90;;
75620;SDS011;64574;48.506;-2.750;2023-04-15T08:27:01;6.65;;;1.20;;
75620;SDS011;64574;48.506;-2.750;2023-04-15T08:29:28;6.07;;;1.05;;
75620;SDS011;64574;48.506;-2.750;2023-04-15T08:31:54;5.57;;;0.93;;
75620;SDS011;64574;48.506;-2.750;2023-04-15T08:34:19;5.65;;;0.98;;
75620;SDS011;64574;48.506;-2.750;2023-04-15T08:36:45;4.15;;;1.00;;
75620;SDS011;64574;48.506;-2.750;2023-04-15T08:39:11;2.95;;;0.77;;
75620;SDS011;64574;48.506;-2.750;2023-04-15T08:41:40;2.58;;;0.57;;
75620;SDS011;64574;48.506;-2.750;2023-04-15T08:44:16;5.18;;;0.90;;
75620;SDS011;64574;48.506;-2.750;2023-04-15T08:46:44;3.50;;;0.80;;
75620;SDS011;64574;48.506;-2.750;2023-04-15T08:51:40;4.20;;;0.63;;
75620;SDS011;64574;48.506;-2.750;2023-04-15T08:54:06;2.65;;;0.60;;
75620;SDS011;64574;48.506;-2.750;2023-04-15T08:56:32;3.10;;;0.60;;
75620;SDS011;64574;48.506;-2.750;2023-04-15T08:58:59;4.70;;;0.60;;
75620;SDS011;64574;48.506;-2.750;2023-04-15T09:01:25;2.90;;;0.70;;
75620;SDS011;64574;48.506;-2.750;2023-04-15T09:03:51;3.90;;;0.77;;
75620;SDS011;64574;48.506;-2.750;2023-04-15T09:06:19;4.15;;;0.80;;
75620;SDS011;64574;48.506;-2.750;2023-04-15T09:08:46;1.98;;;0.50;;
75620;SDS011;64574;48.506;-2.750;2023-04-15T09:11:12;2.30;;;0.47;;
75620;SDS011;64574;48.506;-2.750;2023-04-15T09:13:37;3.55;;;0.60;;
75620;SDS011;64574;48.506;-2.750;2023-04-15T09:16:04;2.33;;;0.50;;
75620;SDS011;64574;48.506;-2.750;2023-04-15T09:18:31;1.95;;;0.70;;
75620;SDS011;64574;48.506;-2.750;2023-04-15T09:21:07;3.97;;;0.60;;
75620;SDS011;64574;48.506;-2.750;2023-04-15T09:23:35;3.95;;;0.90;;
75620;SDS011;64574;48.506;-2.750;2023-04-15T09:26:02;3.40;;;0.45;;
75620;SDS011;64574;48.506;-2.750;2023-04-15T09:28:28;4.65;;;1.08;;
75620;SDS011;64574;48.506;-2.750;2023-04-15T09:30:58;5.32;;;0.85;;
75620;SDS011;64574;48.506;-2.750;2023-04-15T09:33:25;4.57;;;0.70;;
75620;SDS011;64574;48.506;-2.750;2023-04-15T09:35:59;6.95;;;1.00;;
75620;SDS011;64574;48.506;-2.750;2023-04-15T09:38:27;5.85;;;0.90;;
75620;SDS011;64574;48.506;-2.750;2023-04-15T09:40:53;4.75;;;0.70;;
75620;SDS011;64574;48.506;-2.750;2023-04-15T09:43:19;2.38;;;0.47;;
75620;SDS011;64574;48.506;-2.750;2023-04-15T09:45:46;1.77;;;0.57;;
75620;SDS011;64574;48.506;-2.750;2023-04-15T09:48:22;3.70;;;0.82;;
75620;SDS011;64574;48.506;-2.750;2023-04-15T09:50:52;5.32;;;0.80;;
75620;SDS011;64574;48.506;-2.750;2023-04-15T09:53:22;3.17;;;0.55;;
75620;SDS011;64574;48.506;-2.750;2023-04-15T09:58:18;1.98;;;0.65;;
75620;SDS011;64574;48.506;-2.750;2023-04-15T10:00:49;2.60;;;0.55;;
75620;SDS011;64574;48.506;-2.750;2023-04-15T10:03:19;3.70;;;0.65;;
75620;SDS011;64574;48.506;-2.750;2023-04-15T10:05:48;7.40;;;1.25;;
75620;SDS011;64574;48.506;-2.750;2023-04-15T10:08:16;4.10;;;0.80;;
75620;SDS011;64574;48.506;-2.750;2023-04-15T10:10:44;6.30;;;1.05;;
75620;SDS011;64574;48.506;-2.750;2023-04-15T10:13:11;5.03;;;0.93;;
75620;SDS011;64574;48.506;-2.750;2023-04-15T10:15:59;3.83;;;0.70;;
75620;SDS011;64574;48.506;-2.750;2023-04-15T10:18:29;3.60;;;0.70;;
75620;SDS011;64574;48.506;-2.750;2023-04-15T10:20:59;1.42;;;0.50;;
75620;SDS011;64574;48.506;-2.750;2023-04-15T10:23:25;3.67;;;0.70;;
75620;SDS011;64574;48.506;-2.750;2023-04-15T10:25:52;3.40;;;0.82;;
75620;SDS011;64574;48.506;-2.750;2023-04-15T10:28:19;4.22;;;0.68;;
75620;SDS011;64574;48.506;-2.750;2023-04-15T10:30:47;3.05;;;0.70;;
75620;SDS011;64574;48.506;-2.750;2023-04-15T10:33:13;3.75;;;0.50;;
75620;SDS011;64574;48.506;-2.750;2023-04-15T10:35:42;1.38;;;0.77;;
75620;SDS011;64574;48.506;-2.750;2023-04-15T10:43:54;4.93;;;0.77;;
75620;SDS011;64574;48.506;-2.750;2023-04-15T10:46:37;3.90;;;1.33;;
75620;SDS011;64574;48.506;-2.750;2023-04-15T10:49:11;2.28;;;0.60;;
75620;SDS011;64574;48.506;-2.750;2023-04-15T10:51:50;2.47;;;0.77;;
75620;SDS011;64574;48.506;-2.750;2023-04-15T11:01:59;4.03;;;1.45;;
75620;SDS011;64574;48.506;-2.750;2023-04-15T11:12:45;3.33;;;0.80;;
75620;SDS011;64574;48.506;-2.750;2023-04-15T11:15:24;5.55;;;0.82;;
75620;SDS011;64574;48.506;-2.750;2023-04-15T11:17:51;3.17;;;0.68;;
75620;SDS011;64574;48.506;-2.750;2023-04-15T11:20:17;2.22;;;0.80;;
75620;SDS011;64574;48.506;-2.750;2023-04-15T11:22:47;2.10;;;0.60;;
75620;SDS011;64574;48.506;-2.750;2023-04-15T11:25:27;4.15;;;0.70;;
75620;SDS011;64574;48.506;-2.750;2023-04-15T11:27:54;4.30;;;0.80;;
75620;SDS011;64574;48.506;-2.750;2023-04-15T11:30:21;3.35;;;0.40;;
75620;SDS011;64574;48.506;-2.750;2023-04-15T11:32:49;3.17;;;0.60;;
75620;SDS011;64574;48.506;-2.750;2023-04-15T11:35:15;3.33;;;1.20;;
75620;SDS011;64574;48.506;-2.750;2023-04-15T11:37:42;1.92;;;0.60;;
75620;SDS011;64574;48.506;-2.750;2023-04-15T11:40:12;5.65;;;1.05;;
75620;SDS011;64574;48.506;-2.750;2023-04-15T11:42:39;4.75;;;0.60;;
75620;SDS011;64574;48.506;-2.750;2023-04-15T11:45:08;3.42;;;0.93;;
75620;SDS011;64574;48.506;-2.750;2023-04-15T11:47:41;3.90;;;0.63;;
75620;SDS011;64574;48.506;-2.750;2023-04-15T11:50:16;1.50;;;0.65;;
75620;SDS011;64574;48.506;-2.750;2023-04-15T11:52:56;2.70;;;0.50;;
75620;SDS011;64574;48.506;-2.750;2023-04-15T11:55:26;3.80;;;0.80;;
75620;SDS011;64574;48.506;-2.750;2023-04-15T11:58:07;6.80;;;0.85;;
75620;SDS011;64574;48.506;-2.750;2023-04-15T12:00:34;2.20;;;0.65;;
75620;SDS011;64574;48.506;-2.750;2023-04-15T12:13:54;7.47;;;1.15;;
75620;SDS011;64574;48.506;-2.750;2023-04-15T12:16:48;4.22;;;0.77;;
75620;SDS011;64574;48.506;-2.750;2023-04-15T12:19:16;3.85;;;0.60;;
75620;SDS011;64574;48.506;-2.750;2023-04-15T12:21:46;3.88;;;0.70;;
75620;SDS011;64574;48.506;-2.750;2023-04-15T12:24:13;5.53;;;0.77;;
75620;SDS011;64574;48.506;-2.750;2023-04-15T12:26:46;3.67;;;0.95;;
75620;SDS011;64574;48.506;-2.750;2023-04-15T12:29:17;1.92;;;0.60;;
75620;SDS011;64574;48.506;-2.750;2023-04-15T12:31:51;4.60;;;1.02;;
75620;SDS011;64574;48.506;-2.750;2023-04-15T12:34:39;1.30;;;0.55;;
75620;SDS011;64574;48.506;-2.750;2023-04-15T12:37:17;4.15;;;0.60;;
75620;SDS011;64574;48.506;-2.750;2023-04-15T12:39:44;2.90;;;0.52;;
75620;SDS011;64574;48.506;-2.750;2023-04-15T12:42:13;1.98;;;0.60;;
75620;SDS011;64574;48.506;-2.750;2023-04-15T12:44:39;6.25;;;0.80;;
75620;SDS011;64574;48.506;-2.750;2023-04-15T12:47:06;3.90;;;0.68;;
75620;SDS011;64574;48.506;-2.750;2023-04-15T12:49:32;5.25;;;0.50;;
75620;SDS011;64574;48.506;-2.750;2023-04-15T12:51:58;4.63;;;0.60;;
75620;SDS011;64574;48.506;-2.750;2023-04-15T12:54:25;2.92;;;0.70;;
75620;SDS011;64574;48.506;-2.750;2023-04-15T12:56:52;5.65;;;0.85;;
75620;SDS011;64574;48.506;-2.750;2023-04-15T12:59:19;5.00;;;0.70;;
75620;SDS011;64574;48.506;-2.750;2023-04-15T13:01:45;4.82;;;0.63;;
75620;SDS011;64574;48.506;-2.750;2023-04-15T13:04:12;3.60;;;0.50;;
75620;SDS011;64574;48.506;-2.750;2023-04-15T13:06:41;4.88;;;0.80;;
75620;SDS011;64574;48.506;-2.750;2023-04-15T13:09:08;3.53;;;0.80;;
75620;SDS011;64574;48.506;-2.750;2023-04-15T13:11:33;3.08;;;0.68;;
75620;SDS011;64574;48.506;-2.750;2023-04-15T13:14:00;3.58;;;0.55;;
75620;SDS011;64574;48.506;-2.750;2023-04-15T13:16:28;1.27;;;0.52;;
75620;SDS011;64574;48.506;-2.750;2023-04-15T13:18:54;1.48;;;0.50;;
75620;SDS011;64574;48.506;-2.750;2023-04-15T13:21:20;1.65;;;0.77;;
75620;SDS011;64574;48.506;-2.750;2023-04-15T13:23:45;1.90;;;0.60;;
75620;SDS011;64574;48.506;-2.750;2023-04-15T13:26:13;3.33;;;0.50;;
75620;SDS011;64574;48.506;-2.750;2023-04-15T13:28:39;3.83;;;0.50;;
75620;SDS011;64574;48.506;-2.750;2023-04-15T13:31:04;1.92;;;0.60;;
75620;SDS011;64574;48.506;-2.750;2023-04-15T13:33:30;2.38;;;0.47;;
75620;SDS011;64574;48.506;-2.750;2023-04-15T13:35:56;2.95;;;0.80;;
75620;SDS011;64574;48.506;-2.750;2023-04-15T13:38:21;3.28;;;0.57;;
75620;SDS011;64574;48.506;-2.750;2023-04-15T13:43:14;3.45;;;0.80;;
75620;SDS011;64574;48.506;-2.750;2023-04-15T13:45:41;2.50;;;0.60;;
75620;SDS011;64574;48.506;-2.750;2023-04-15T13:48:07;2.55;;;0.50;;
75620;SDS011;64574;48.506;-2.750;2023-04-15T13:50:33;4.05;;;0.63;;
75620;SDS011;64574;48.506;-2.750;2023-04-15T13:52:58;3.10;;;0.60;;
75620;SDS011;64574;48.506;-2.750;2023-04-15T13:55:24;4.57;;;1.05;;
75620;SDS011;64574;48.506;-2.750;2023-04-15T13:57:50;2.45;;;0.70;;
75620;SDS011;64574;48.506;-2.750;2023-04-15T14:00:16;9.65;;;1.00;;
75620;SDS011;64574;48.506;-2.750;2023-04-15T14:02:41;4.78;;;0.70;;
75620;SDS011;64574;48.506;-2.750;2023-04-15T14:05:07;4.93;;;0.80;;
75620;SDS011;64574;48.506;-2.750;2023-04-15T14:07:33;4.90;;;1.48;;
75620;SDS011;64574;48.506;-2.750;2023-04-15T14:09:59;6.60;;;1.10;;
75620;SDS011;64574;48.506;-2.750;2023-04-15T14:12:25;4.35;;;0.95;;
75620;SDS011;64574;48.506;-2.750;2023-04-15T14:14:50;3.67;;;0.95;;
75620;SDS011;64574;48.506;-2.750;2023-04-15T14:17:16;3.65;;;0.80;;
75620;SDS011;64574;48.506;-2.750;2023-04-15T14:19:41;7.07;;;1.27;;
75620;SDS011;64574;48.506;-2.750;2023-04-15T14:22:07;3.60;;;0.77;;
75620;SDS011;64574;48.506;-2.750;2023-04-15T14:24:32;7.00;;;1.23;;
75620;SDS011;64574;48.506;-2.750;2023-04-15T14:26:58;5.13;;;0.95;;
75620;SDS011;64574;48.506;-2.750;2023-04-15T14:29:24;4.35;;;0.80;;
75620;SDS011;64574;48.506;-2.750;2023-04-15T14:31:50;3.42;;;0.82;;
75620;SDS011;64574;48.506;-2.750;2023-04-15T14:34:16;5.20;;;1.00;;
75620;SDS011;64574;48.506;-2.750;2023-04-15T14:36:44;4.50;;;1.02;;
75620;SDS011;64574;48.506;-2.750;2023-04-15T14:41:40;4.72;;;0.68;;
75620;SDS011;64574;48.506;-2.750;2023-04-15T14:44:06;6.22;;;0.98;;
75620;SDS011;64574;48.506;-2.750;2023-04-15T14:46:33;5.75;;;0.80;;
75620;SDS011;64574;48.506;-2.750;2023-04-15T14:48:59;3.00;;;0.80;;
75620;SDS011;64574;48.506;-2.750;2023-04-15T14:51:25;2.30;;;0.60;;
75620;SDS011;64574;48.506;-2.750;2023-04-15T14:53:51;4.43;;;0.75;;
75620;SDS011;64574;48.506;-2.750;2023-04-15T14:56:16;3.40;;;0.77;;
75620;SDS011;64574;48.506;-2.750;2023-04-15T14:58:43;3.10;;;0.80;;
75620;SDS011;64574;48.506;-2.750;2023-04-15T15:01:08;4.30;;;0.93;;
75620;SDS011;64574;48.506;-2.750;2023-04-15T15:03:34;4.32;;;0.93;;
75620;SDS011;64574;48.506;-2.750;2023-04-15T15:06:00;4.45;;;0.60;;
75620;SDS011;64574;48.506;-2.750;2023-04-15T15:08:26;1.58;;;0.73;;
75620;SDS011;64574;48.506;-2.750;2023-04-15T15:10:51;3.28;;;0.73;;
75620;SDS011;64574;48.506;-2.750;2023-04-15T15:13:17;2.65;;;0.68;;
75620;SDS011;64574;48.506;-2.750;2023-04-15T15:15:43;2.08;;;0.50;;
75620;SDS011;64574;48.506;-2.750;2023-04-15T15:18:09;2.42;;;0.60;;
75620;SDS011;64574;48.506;-2.750;2023-04-15T15:20:35;4.35;;;0.73;;
75620;SDS011;64574;48.506;-2.750;2023-04-15T15:23:01;2.22;;;0.70;;